createdAt,value
2022-09-04T00:11:33.912Z,15.4
2022-09-04T00:21:35.914Z,15.2
2022-09-04T00:31:38.102Z,15.2
2022-09-04T00:41:40.417Z,14.9
2022-09-04T00:51:42.271Z,14.8
2022-09-04T01:01:44.966Z,14.7
2022-09-04T01:11:46.765Z,14.6
2022-09-04T01:21:49.129Z,14.6
2022-09-04T01:31:51.337Z,14.6
2022-09-04T01:41:53.714Z,14.5
2022-09-04T01:51:55.736Z,14.2
2022-09-04T02:01:57.881Z,14.2
2022-09-04T02:12:00.047Z,14
2022-09-04T02:22:01.927Z,13.6
2022-09-04T02:32:03.935Z,13.3
2022-09-04T02:42:05.702Z,13.2
2022-09-04T02:52:07.886Z,13.3
2022-09-04T03:02:09.665Z,13.2
2022-09-04T03:12:11.853Z,13.1
2022-09-04T03:22:13.990Z,13
2022-09-04T03:42:18.512Z,12.7
2022-09-04T04:32:29.444Z,12.5
2022-09-04T04:42:31.440Z,12.8
2022-09-04T04:52:33.280Z,12.3
2022-09-04T05:22:39.733Z,12.4
2022-09-04T05:32:41.719Z,12.5
2022-09-04T05:42:43.779Z,13.2
2022-09-04T05:52:45.808Z,14.9
2022-09-04T06:02:48.022Z,17.4
2022-09-04T06:12:50.128Z,19
2022-09-04T06:22:55.528Z,18.2
2022-09-04T06:32:54.123Z,19.4
2022-09-04T06:42:56.513Z,19.9
2022-09-04T06:53:01.060Z,18.9
2022-09-04T07:03:00.355Z,19.1
2022-09-04T07:13:02.930Z,19.4
2022-09-04T07:13:09.805Z,19.5
2022-09-04T07:23:11.466Z,19.4
2022-09-04T07:33:13.388Z,19.9
2022-09-04T07:43:15.977Z,19.8
2022-09-04T07:53:18.361Z,20.6
2022-09-04T08:03:20.431Z,21.5
2022-09-04T08:13:22.080Z,21.7
2022-09-04T08:23:24.499Z,23.2
2022-09-04T08:33:26.525Z,22.7
2022-09-04T08:43:28.563Z,23.9
2022-09-04T08:53:30.863Z,23.1
2022-09-04T09:03:32.972Z,23.5
2022-09-04T09:13:35.119Z,23.8
2022-09-04T09:23:37.048Z,24.7
2022-09-04T09:33:39.689Z,24.3
2022-09-04T09:43:41.733Z,24.1
2022-09-04T09:53:46.425Z,24.6
2022-09-04T10:03:46.024Z,24.9
2022-09-04T10:13:48.088Z,24.6
2022-09-04T10:23:50.478Z,26.6
2022-09-04T10:33:52.129Z,25.7
2022-09-04T10:43:54.476Z,27.6
2022-09-04T10:53:56.162Z,26.1
2022-09-04T11:03:58.809Z,26.1
2022-09-04T11:14:01.252Z,26
2022-09-04T11:24:03.462Z,26.5
2022-09-04T11:34:05.160Z,26.2
2022-09-04T11:44:07.224Z,28
2022-09-04T11:54:08.940Z,27.2
2022-09-04T12:04:10.624Z,28.2
2022-09-04T12:14:12.739Z,26.6
2022-09-04T12:24:14.506Z,25.9
2022-09-04T12:34:16.565Z,25.4
2022-09-04T12:44:18.708Z,27.1
2022-09-04T12:54:20.619Z,26.5
2022-09-04T13:04:22.490Z,26.4
2022-09-04T13:14:24.857Z,26.8
2022-09-04T13:24:27.202Z,26.3
2022-09-04T13:34:29.609Z,26.7
2022-09-04T13:44:31.513Z,26.8
2022-09-04T13:54:33.754Z,26.7
2022-09-04T14:04:36.185Z,27.3
2022-09-04T14:14:38.576Z,27.2
2022-09-04T14:24:40.342Z,26.9
2022-09-04T14:34:42.355Z,26.4
2022-09-04T14:44:45.005Z,26.4
2022-09-04T14:54:47.727Z,26.3
2022-09-04T15:04:50.071Z,26.4
2022-09-04T15:14:52.266Z,26.4
2022-09-04T15:24:54.931Z,26.3
2022-09-04T15:34:56.724Z,26.3
2022-09-04T15:44:59.222Z,26
2022-09-04T15:55:01.819Z,26
2022-09-04T16:05:04.057Z,26.2
2022-09-04T16:15:06.034Z,26.2
2022-09-04T16:25:08.331Z,26.2
2022-09-04T16:35:10.521Z,26.2
2022-09-04T16:45:13.087Z,26.3
2022-09-04T16:55:15.064Z,26
2022-09-04T17:05:16.974Z,25.9
2022-09-04T17:15:18.819Z,25.9
2022-09-04T17:28:54.917Z,25.4
2022-09-04T17:37:23.662Z,25.1
2022-09-04T17:45:25.288Z,24.9
2022-09-04T17:55:27.436Z,24.6
2022-09-04T18:05:29.305Z,24.3
2022-09-04T18:15:32.950Z,23.7
2022-09-04T18:25:34.134Z,23.4
2022-09-04T18:37:14.208Z,23
2022-09-04T18:55:41.011Z,22.5
2022-09-04T19:05:44.631Z,22.2
2022-09-04T19:15:46.130Z,21.9
2022-09-04T19:25:47.606Z,21.6
2022-09-04T19:35:49.840Z,21.3
2022-09-04T19:46:10.284Z,21.5
2022-09-04T19:55:53.760Z,21.4
2022-09-04T20:05:55.623Z,21.1
2022-09-04T20:15:57.730Z,20.9
2022-09-04T20:26:00.150Z,20.6
2022-09-04T20:36:02.329Z,20.1
2022-09-04T20:48:36.331Z,19.8
2022-09-04T20:56:06.222Z,19.4
2022-09-04T21:06:07.952Z,19.4
2022-09-04T21:16:09.721Z,19.1
2022-09-04T21:26:12.048Z,18.8
2022-09-04T21:36:25.872Z,18.7
2022-09-04T21:46:16.979Z,18.7
2022-09-04T21:57:00.072Z,18.5
2022-09-04T22:06:41.057Z,18.3
2022-09-04T22:26:25.958Z,18
2022-09-04T22:36:28.385Z,17.7
2022-09-04T22:46:31.211Z,17.7
2022-09-04T22:56:32.942Z,17.5
2022-09-04T23:07:27.970Z,17.5
2022-09-04T23:16:37.627Z,17.3
2022-09-04T23:27:00.541Z,17.3
2022-09-04T23:36:41.752Z,17.2
2022-09-04T23:46:44.171Z,17.2
